sensor_id;sensor_type;location;lat;lon;timestamp;temperature;humidity
54485;DHT22;45006;56.958;24.166;2022-11-03T17:38:17;22.30;81.30
54485;DHT22;45006;56.958;24.166;2022-11-03T17:40:46;22.40;81.30
54485;DHT22;45006;56.958;24.166;2022-11-03T17:43:26;22.40;80.80
54485;DHT22;45006;56.958;24.166;2022-11-03T17:45:55;22.40;80.50
54485;DHT22;45006;56.958;24.166;2022-11-03T17:48:22;22.40;79.90
54485;DHT22;45006;56.958;24.166;2022-11-03T17:50:52;22.40;79.60
54485;DHT22;45006;56.958;24.166;2022-11-03T17:53:28;22.40;79.30
54485;DHT22;45006;56.958;24.166;2022-11-03T17:55:58;22.40;79.00
54485;DHT22;45006;56.958;24.166;2022-11-03T17:58:45;22.40;78.90
54485;DHT22;45006;56.958;24.166;2022-11-03T18:01:20;22.40;78.50
54485;DHT22;45006;56.958;24.166;2022-11-03T18:03:48;22.40;78.30
54485;DHT22;45006;56.958;24.166;2022-11-03T18:06:16;22.30;78.00
54485;DHT22;45006;56.958;24.166;2022-11-03T18:08:48;22.30;78.10
54485;DHT22;45006;56.958;24.166;2022-11-03T18:11:27;22.40;77.90
54485;DHT22;45006;56.958;24.166;2022-11-03T18:14:14;22.30;77.60
54485;DHT22;45006;56.958;24.166;2022-11-03T18:16:42;22.30;77.60
54485;DHT22;45006;56.958;24.166;2022-11-03T18:19:13;22.30;77.20
54485;DHT22;45006;56.958;24.166;2022-11-03T18:21:40;22.30;77.10
54485;DHT22;45006;56.958;24.166;2022-11-03T18:24:15;22.30;77.00
54485;DHT22;45006;56.958;24.166;2022-11-03T18:26:42;22.30;77.00
54485;DHT22;45006;56.958;24.166;2022-11-03T18:29:10;22.30;76.80
54485;DHT22;45006;56.958;24.166;2022-11-03T18:31:42;22.30;76.70
54485;DHT22;45006;56.958;24.166;2022-11-03T18:34:16;22.30;76.60
54485;DHT22;45006;56.958;24.166;2022-11-03T18:36:45;22.30;76.50
54485;DHT22;45006;56.958;24.166;2022-11-03T18:39:23;22.30;76.40
54485;DHT22;45006;56.958;24.166;2022-11-03T18:41:51;22.30;76.20
54485;DHT22;45006;56.958;24.166;2022-11-03T18:44:24;22.20;76.60
54485;DHT22;45006;56.958;24.166;2022-11-03T18:46:54;22.20;76.10
54485;DHT22;45006;56.958;24.166;2022-11-03T18:49:23;22.20;76.00
54485;DHT22;45006;56.958;24.166;2022-11-03T18:51:53;22.20;76.00
54485;DHT22;45006;56.958;24.166;2022-11-03T18:54:28;22.20;75.80
54485;DHT22;45006;56.958;24.166;2022-11-03T18:56:56;22.20;75.80
54485;DHT22;45006;56.958;24.166;2022-11-03T18:59:28;22.20;75.80
54485;DHT22;45006;56.958;24.166;2022-11-03T19:01:57;22.20;75.70
54485;DHT22;45006;56.958;24.166;2022-11-03T19:04:25;22.20;76.30
54485;DHT22;45006;56.958;24.166;2022-11-03T19:06:52;22.20;77.20
54485;DHT22;45006;56.958;24.166;2022-11-03T19:09:21;22.20;77.30
54485;DHT22;45006;56.958;24.166;2022-11-03T19:11:51;22.30;77.40
54485;DHT22;45006;56.958;24.166;2022-11-03T19:14:28;22.30;77.50
54485;DHT22;45006;56.958;24.166;2022-11-03T19:17:03;22.30;77.60
54485;DHT22;45006;56.958;24.166;2022-11-03T19:19:48;22.30;77.60
54485;DHT22;45006;56.958;24.166;2022-11-03T19:22:18;22.30;77.60
54485;DHT22;45006;56.958;24.166;2022-11-03T19:24:45;22.30;77.60
54485;DHT22;45006;56.958;24.166;2022-11-03T19:27:27;22.30;78.10
54485;DHT22;45006;56.958;24.166;2022-11-03T19:29:58;22.30;77.90
54485;DHT22;45006;56.958;24.166;2022-11-03T19:32:28;22.30;78.10
54485;DHT22;45006;56.958;24.166;2022-11-03T19:34:59;22.30;78.20
54485;DHT22;45006;56.958;24.166;2022-11-03T19:37:28;22.30;78.40
54485;DHT22;45006;56.958;24.166;2022-11-03T19:40:03;22.30;78.50
54485;DHT22;45006;56.958;24.166;2022-11-03T19:42:34;22.30;78.50
54485;DHT22;45006;56.958;24.166;2022-11-03T19:45:09;22.30;78.70
54485;DHT22;45006;56.958;24.166;2022-11-03T19:47:39;22.30;78.80
54485;DHT22;45006;56.958;24.166;2022-11-03T19:50:22;22.30;78.90
54485;DHT22;45006;56.958;24.166;2022-11-03T19:52:57;22.30;79.00
54485;DHT22;45006;56.958;24.166;2022-11-03T19:55:34;22.30;79.00
54485;DHT22;45006;56.958;24.166;2022-11-03T19:58:19;22.30;79.20
54485;DHT22;45006;56.958;24.166;2022-11-03T20:00:47;22.30;79.40
54485;DHT22;45006;56.958;24.166;2022-11-03T20:03:15;22.30;79.50
54485;DHT22;45006;56.958;24.166;2022-11-03T20:05:43;22.30;79.40
54485;DHT22;45006;56.958;24.166;2022-11-03T20:08:17;22.30;79.40
54485;DHT22;45006;56.958;24.166;2022-11-03T20:10:46;22.30;79.40
54485;DHT22;45006;56.958;24.166;2022-11-03T20:13:15;22.30;79.50
54485;DHT22;45006;56.958;24.166;2022-11-03T20:15:42;22.30;79.60
54485;DHT22;45006;56.958;24.166;2022-11-03T20:18:11;22.30;79.60
54485;DHT22;45006;56.958;24.166;2022-11-03T20:20:39;22.30;79.70
54485;DHT22;45006;56.958;24.166;2022-11-03T20:23:16;22.30;79.70
54485;DHT22;45006;56.958;24.166;2022-11-03T20:25:44;22.30;79.80
54485;DHT22;45006;56.958;24.166;2022-11-03T20:28:19;22.30;79.90
54485;DHT22;45006;56.958;24.166;2022-11-03T20:30:47;22.30;80.10
54485;DHT22;45006;56.958;24.166;2022-11-03T20:33:19;22.30;80.10
54485;DHT22;45006;56.958;24.166;2022-11-03T20:35:46;22.30;80.00
54485;DHT22;45006;56.958;24.166;2022-11-03T20:38:15;22.30;80.10
54485;DHT22;45006;56.958;24.166;2022-11-03T20:40:45;22.30;80.30
54485;DHT22;45006;56.958;24.166;2022-11-03T20:45:52;22.30;80.20
54485;DHT22;45006;56.958;24.166;2022-11-03T20:48:19;22.30;80.20
54485;DHT22;45006;56.958;24.166;2022-11-03T20:50:46;22.30;80.90
54485;DHT22;45006;56.958;24.166;2022-11-03T20:53:16;22.30;80.30
54485;DHT22;45006;56.958;24.166;2022-11-03T20:55:43;22.30;80.30
54485;DHT22;45006;56.958;24.166;2022-11-03T20:58:15;22.30;80.40
54485;DHT22;45006;56.958;24.166;2022-11-03T21:00:44;22.30;80.40
54485;DHT22;45006;56.958;24.166;2022-11-03T21:03:24;22.30;80.50
54485;DHT22;45006;56.958;24.166;2022-11-03T21:06:13;22.30;80.50
54485;DHT22;45006;56.958;24.166;2022-11-03T21:08:43;22.30;80.50
54485;DHT22;45006;56.958;24.166;2022-11-03T21:11:25;22.30;80.60
54485;DHT22;45006;56.958;24.166;2022-11-03T21:14:01;22.30;80.60
54485;DHT22;45006;56.958;24.166;2022-11-03T21:16:30;22.30;80.70
54485;DHT22;45006;56.958;24.166;2022-11-03T21:19:21;22.30;80.70
54485;DHT22;45006;56.958;24.166;2022-11-03T21:22:22;22.30;80.70
54485;DHT22;45006;56.958;24.166;2022-11-03T21:25:14;22.30;80.80
54485;DHT22;45006;56.958;24.166;2022-11-03T21:27:41;22.30;80.80
54485;DHT22;45006;56.958;24.166;2022-11-03T21:30:13;22.30;80.90
54485;DHT22;45006;56.958;24.166;2022-11-03T21:32:40;22.30;80.90
54485;DHT22;45006;56.958;24.166;2022-11-03T21:35:18;22.30;80.90
54485;DHT22;45006;56.958;24.166;2022-11-03T21:37:45;22.30;80.90
54485;DHT22;45006;56.958;24.166;2022-11-03T21:40:13;22.30;80.90
54485;DHT22;45006;56.958;24.166;2022-11-03T21:42:40;22.30;80.90
54485;DHT22;45006;56.958;24.166;2022-11-03T21:45:26;22.30;81.00
54485;DHT22;45006;56.958;24.166;2022-11-03T21:47:53;22.30;81.00
54485;DHT22;45006;56.958;24.166;2022-11-03T21:50:41;22.30;81.10
54485;DHT22;45006;56.958;24.166;2022-11-03T21:53:08;22.30;81.10
54485;DHT22;45006;56.958;24.166;2022-11-03T21:55:36;22.30;81.10
54485;DHT22;45006;56.958;24.166;2022-11-03T21:58:03;22.30;81.20
54485;DHT22;45006;56.958;24.166;2022-11-03T22:00:30;22.30;81.60
54485;DHT22;45006;56.958;24.166;2022-11-03T22:02:58;22.30;81.60
54485;DHT22;45006;56.958;24.166;2022-11-03T22:05:25;22.30;81.40
54485;DHT22;45006;56.958;24.166;2022-11-03T22:07:52;22.30;81.40
54485;DHT22;45006;56.958;24.166;2022-11-03T22:10:19;22.40;81.30
54485;DHT22;45006;56.958;24.166;2022-11-03T22:12:46;22.40;81.40
54485;DHT22;45006;56.958;24.166;2022-11-03T22:15:13;22.40;81.40
54485;DHT22;45006;56.958;24.166;2022-11-03T22:17:59;22.40;81.30
54485;DHT22;45006;56.958;24.166;2022-11-03T22:20:26;22.40;80.70
54485;DHT22;45006;56.958;24.166;2022-11-03T22:23:12;22.40;81.50
54485;DHT22;45006;56.958;24.166;2022-11-03T22:26:00;22.40;81.30
54485;DHT22;45006;56.958;24.166;2022-11-03T22:28:45;22.40;81.20
54485;DHT22;45006;56.958;24.166;2022-11-03T22:31:32;22.40;81.30
54485;DHT22;45006;56.958;24.166;2022-11-03T22:34:08;22.30;80.90
54485;DHT22;45006;56.958;24.166;2022-11-03T22:36:54;22.50;80.90
54485;DHT22;45006;56.958;24.166;2022-11-03T22:42:09;22.50;80.50
54485;DHT22;45006;56.958;24.166;2022-11-03T22:44:55;22.50;80.50
54485;DHT22;45006;56.958;24.166;2022-11-03T22:47:48;22.60;81.10
54485;DHT22;45006;56.958;24.166;2022-11-03T22:50:22;22.60;81.20
54485;DHT22;45006;56.958;24.166;2022-11-03T22:52:49;22.50;81.40
54485;DHT22;45006;56.958;24.166;2022-11-03T22:55:16;22.60;81.40
54485;DHT22;45006;56.958;24.166;2022-11-03T22:57:43;22.50;81.40
54485;DHT22;45006;56.958;24.166;2022-11-03T23:00:11;22.50;81.40
54485;DHT22;45006;56.958;24.166;2022-11-03T23:05:06;22.60;80.30
54485;DHT22;45006;56.958;24.166;2022-11-03T23:07:34;22.70;80.00
54485;DHT22;45006;56.958;24.166;2022-11-03T23:10:07;22.70;79.90
54485;DHT22;45006;56.958;24.166;2022-11-03T23:15:01;22.70;79.90
54485;DHT22;45006;56.958;24.166;2022-11-03T23:17:48;22.80;80.10
54485;DHT22;45006;56.958;24.166;2022-11-03T23:20:36;22.80;80.70
54485;DHT22;45006;56.958;24.166;2022-11-03T23:23:21;22.70;81.10
54485;DHT22;45006;56.958;24.166;2022-11-03T23:26:09;22.60;80.50
54485;DHT22;45006;56.958;24.166;2022-11-03T23:28:36;22.60;81.20
54485;DHT22;45006;56.958;24.166;2022-11-03T23:31:03;22.70;80.10
54485;DHT22;45006;56.958;24.166;2022-11-03T23:38:30;22.90;92.80
54485;DHT22;45006;56.958;24.166;2022-11-03T23:41:03;22.80;85.70
54485;DHT22;45006;56.958;24.166;2022-11-03T23:43:30;22.70;80.80
54485;DHT22;45006;56.958;24.166;2022-11-03T23:45:57;22.70;81.20
54485;DHT22;45006;56.958;24.166;2022-11-03T23:48:43;22.70;81.20
54485;DHT22;45006;56.958;24.166;2022-11-03T23:51:21;22.70;81.30
54485;DHT22;45006;56.958;24.166;2022-11-03T23:53:49;22.70;81.40
54485;DHT22;45006;56.958;24.166;2022-11-03T23:56:19;22.70;81.40
54485;DHT22;45006;56.958;24.166;2022-11-03T23:59:06;22.70;81.40
